sensor_id;sensor_type;location;lat;lon;timestamp;pressure;altitude;pressure_sealevel;temperature;humidity
28027;BME280;15344;52.342;-1.290;2023-12-14T00:01:39;100317.33;;;6.77;85.52
28027;BME280;15344;52.342;-1.290;2023-12-14T00:04:05;100315.90;;;7.13;84.15
28027;BME280;15344;52.342;-1.290;2023-12-14T00:06:31;100317.18;;;6.61;87.31
28027;BME280;15344;52.342;-1.290;2023-12-14T00:08:56;100310.22;;;6.25;84.84
28027;BME280;15344;52.342;-1.290;2023-12-14T00:11:21;100309.80;;;7.03;84.25
28027;BME280;15344;52.342;-1.290;2023-12-14T00:13:47;100319.94;;;7.43;83.43
28027;BME280;15344;52.342;-1.290;2023-12-14T00:16:13;100327.95;;;7.36;81.51
28027;BME280;15344;52.342;-1.290;2023-12-14T00:18:38;100325.61;;;7.73;80.41
28027;BME280;15344;52.342;-1.290;2023-12-14T00:21:05;100329.07;;;7.56;80.48
28027;BME280;15344;52.342;-1.290;2023-12-14T00:23:30;100327.67;;;7.49;80.23
28027;BME280;15344;52.342;-1.290;2023-12-14T00:25:55;100323.35;;;7.21;81.25
28027;BME280;15344;52.342;-1.290;2023-12-14T00:28:21;100321.85;;;7.55;79.43
28027;BME280;15344;52.342;-1.290;2023-12-14T00:30:46;100321.13;;;7.05;82.79
28027;BME280;15344;52.342;-1.290;2023-12-14T00:33:12;100321.68;;;7.41;80.06
28027;BME280;15344;52.342;-1.290;2023-12-14T00:35:37;100317.48;;;7.72;78.26
28027;BME280;15344;52.342;-1.290;2023-12-14T00:38:03;100310.91;;;6.92;82.53
28027;BME280;15344;52.342;-1.290;2023-12-14T00:40:28;100318.45;;;7.12;82.21
28027;BME280;15344;52.342;-1.290;2023-12-14T00:42:54;100326.18;;;7.84;77.54
28027;BME280;15344;52.342;-1.290;2023-12-14T00:45:19;100328.05;;;7.63;76.79
28027;BME280;15344;52.342;-1.290;2023-12-14T00:47:45;100326.78;;;7.55;76.86
28027;BME280;15344;52.342;-1.290;2023-12-14T00:50:11;100331.28;;;7.35;78.61
28027;BME280;15344;52.342;-1.290;2023-12-14T00:52:36;100332.60;;;7.38;78.76
28027;BME280;15344;52.342;-1.290;2023-12-14T00:55:01;100328.06;;;7.23;78.63
28027;BME280;15344;52.342;-1.290;2023-12-14T00:57:26;100329.32;;;7.36;78.33
28027;BME280;15344;52.342;-1.290;2023-12-14T00:59:52;100331.09;;;7.31;78.05
28027;BME280;15344;52.342;-1.290;2023-12-14T01:02:18;100331.08;;;7.53;77.61
28027;BME280;15344;52.342;-1.290;2023-12-14T01:04:43;100333.51;;;7.56;78.45
28027;BME280;15344;52.342;-1.290;2023-12-14T01:07:08;100336.55;;;7.28;80.41
28027;BME280;15344;52.342;-1.290;2023-12-14T01:09:34;100338.07;;;7.19;78.81
28027;BME280;15344;52.342;-1.290;2023-12-14T01:11:59;100346.23;;;6.70;81.52
28027;BME280;15344;52.342;-1.290;2023-12-14T01:14:24;100349.78;;;6.66;81.75
28027;BME280;15344;52.342;-1.290;2023-12-14T01:16:50;100350.66;;;7.24;80.24
28027;BME280;15344;52.342;-1.290;2023-12-14T01:19:16;100350.76;;;7.35;78.51
28027;BME280;15344;52.342;-1.290;2023-12-14T01:21:41;100350.18;;;6.75;80.78
28027;BME280;15344;52.342;-1.290;2023-12-14T01:24:07;100350.10;;;6.59;82.18
28027;BME280;15344;52.342;-1.290;2023-12-14T01:26:32;100360.56;;;6.80;81.66
28027;BME280;15344;52.342;-1.290;2023-12-14T01:28:58;100365.01;;;7.23;79.14
28027;BME280;15344;52.342;-1.290;2023-12-14T01:31:23;100362.41;;;6.87;80.00
28027;BME280;15344;52.342;-1.290;2023-12-14T01:33:48;100365.77;;;7.15;78.15
28027;BME280;15344;52.342;-1.290;2023-12-14T01:36:20;100362.11;;;6.99;80.43
28027;BME280;15344;52.342;-1.290;2023-12-14T01:38:40;100357.16;;;7.43;79.10
28027;BME280;15344;52.342;-1.290;2023-12-14T01:41:05;100360.53;;;7.04;79.70
28027;BME280;15344;52.342;-1.290;2023-12-14T01:43:31;100364.79;;;6.86;79.92
28027;BME280;15344;52.342;-1.290;2023-12-14T01:45:57;100366.23;;;6.78;79.79
28027;BME280;15344;52.342;-1.290;2023-12-14T01:48:22;100363.81;;;6.98;78.69
28027;BME280;15344;52.342;-1.290;2023-12-14T01:50:47;100368.24;;;7.25;78.73
28027;BME280;15344;52.342;-1.290;2023-12-14T01:53:13;100371.89;;;7.21;78.20
28027;BME280;15344;52.342;-1.290;2023-12-14T01:55:38;100369.39;;;7.33;77.45
28027;BME280;15344;52.342;-1.290;2023-12-14T01:58:04;100365.74;;;6.97;78.88
28027;BME280;15344;52.342;-1.290;2023-12-14T02:00:36;100356.69;;;7.29;77.33
28027;BME280;15344;52.342;-1.290;2023-12-14T02:02:55;100357.19;;;7.09;76.79
28027;BME280;15344;52.342;-1.290;2023-12-14T02:05:21;100358.61;;;7.00;77.31
28027;BME280;15344;52.342;-1.290;2023-12-14T02:07:46;100359.60;;;6.92;78.56
28027;BME280;15344;52.342;-1.290;2023-12-14T02:10:11;100368.70;;;6.93;76.99
28027;BME280;15344;52.342;-1.290;2023-12-14T02:12:37;100364.79;;;7.53;75.91
28027;BME280;15344;52.342;-1.290;2023-12-14T02:15:03;100368.39;;;6.61;77.52
28027;BME280;15344;52.342;-1.290;2023-12-14T02:17:28;100370.31;;;6.88;77.94
28027;BME280;15344;52.342;-1.290;2023-12-14T02:19:54;100362.85;;;6.87;78.76
28027;BME280;15344;52.342;-1.290;2023-12-14T02:22:19;100363.42;;;6.97;77.77
28027;BME280;15344;52.342;-1.290;2023-12-14T02:24:45;100366.79;;;6.88;77.49
28027;BME280;15344;52.342;-1.290;2023-12-14T02:27:10;100372.22;;;6.87;77.71
28027;BME280;15344;52.342;-1.290;2023-12-14T02:29:36;100368.79;;;6.96;77.40
28027;BME280;15344;52.342;-1.290;2023-12-14T02:32:01;100368.33;;;7.41;76.82
28027;BME280;15344;52.342;-1.290;2023-12-14T02:34:27;100372.27;;;7.48;75.71
28027;BME280;15344;52.342;-1.290;2023-12-14T02:36:53;100363.97;;;6.97;78.03
28027;BME280;15344;52.342;-1.290;2023-12-14T02:39:18;100365.56;;;7.39;76.89
28027;BME280;15344;52.342;-1.290;2023-12-14T02:41:44;100371.29;;;7.01;77.21
28027;BME280;15344;52.342;-1.290;2023-12-14T02:44:09;100370.97;;;7.24;77.46
28027;BME280;15344;52.342;-1.290;2023-12-14T02:46:35;100376.60;;;6.85;78.85
28027;BME280;15344;52.342;-1.290;2023-12-14T02:49:00;100378.32;;;6.60;80.23
28027;BME280;15344;52.342;-1.290;2023-12-14T02:51:26;100371.50;;;6.56;82.59
28027;BME280;15344;52.342;-1.290;2023-12-14T02:53:51;100366.37;;;6.78;82.02
28027;BME280;15344;52.342;-1.290;2023-12-14T02:56:17;100367.15;;;6.95;81.69
28027;BME280;15344;52.342;-1.290;2023-12-14T02:58:42;100365.65;;;7.25;80.94
28027;BME280;15344;52.342;-1.290;2023-12-14T03:01:07;100366.28;;;7.15;81.34
28027;BME280;15344;52.342;-1.290;2023-12-14T03:03:33;100370.67;;;6.96;81.53
28027;BME280;15344;52.342;-1.290;2023-12-14T03:05:58;100375.31;;;7.58;80.14
28027;BME280;15344;52.342;-1.290;2023-12-14T03:08:24;100384.89;;;7.50;79.64
28027;BME280;15344;52.342;-1.290;2023-12-14T03:10:49;100393.56;;;7.22;80.20
28027;BME280;15344;52.342;-1.290;2023-12-14T03:13:15;100390.59;;;7.10;80.15
28027;BME280;15344;52.342;-1.290;2023-12-14T03:15:42;100393.53;;;7.35;81.06
28027;BME280;15344;52.342;-1.290;2023-12-14T03:18:05;100395.26;;;7.11;81.76
28027;BME280;15344;52.342;-1.290;2023-12-14T03:20:31;100397.08;;;7.20;83.02
28027;BME280;15344;52.342;-1.290;2023-12-14T03:22:57;100406.09;;;6.90;84.79
28027;BME280;15344;52.342;-1.290;2023-12-14T03:25:22;100407.24;;;7.03;83.89
28027;BME280;15344;52.342;-1.290;2023-12-14T03:27:48;100407.64;;;6.86;84.88
28027;BME280;15344;52.342;-1.290;2023-12-14T03:30:13;100411.01;;;6.79;85.62
28027;BME280;15344;52.342;-1.290;2023-12-14T03:32:39;100411.13;;;6.26;87.30
28027;BME280;15344;52.342;-1.290;2023-12-14T03:35:05;100410.50;;;6.53;84.38
28027;BME280;15344;52.342;-1.290;2023-12-14T03:37:30;100406.31;;;6.36;85.93
28027;BME280;15344;52.342;-1.290;2023-12-14T03:39:55;100402.87;;;5.74;90.42
28027;BME280;15344;52.342;-1.290;2023-12-14T03:42:21;100405.05;;;5.63;90.49
28027;BME280;15344;52.342;-1.290;2023-12-14T03:44:46;100405.53;;;6.05;89.43
28027;BME280;15344;52.342;-1.290;2023-12-14T03:47:11;100400.27;;;5.24;92.62
28027;BME280;15344;52.342;-1.290;2023-12-14T03:49:37;100400.53;;;6.12;90.06
28027;BME280;15344;52.342;-1.290;2023-12-14T03:52:03;100399.78;;;6.03;90.10
28027;BME280;15344;52.342;-1.290;2023-12-14T03:54:28;100400.43;;;6.54;88.77
28027;BME280;15344;52.342;-1.290;2023-12-14T03:56:54;100403.31;;;6.14;89.07
28027;BME280;15344;52.342;-1.290;2023-12-14T03:59:20;100405.76;;;6.33;88.65
28027;BME280;15344;52.342;-1.290;2023-12-14T04:01:45;100402.20;;;6.15;92.44
28027;BME280;15344;52.342;-1.290;2023-12-14T04:04:10;100393.28;;;5.36;92.17
28027;BME280;15344;52.342;-1.290;2023-12-14T04:06:35;100394.92;;;6.70;89.25
28027;BME280;15344;52.342;-1.290;2023-12-14T04:09:01;100400.37;;;5.97;87.49
28027;BME280;15344;52.342;-1.290;2023-12-14T04:11:26;100406.93;;;5.89;93.17
28027;BME280;15344;52.342;-1.290;2023-12-14T04:13:52;100416.15;;;5.91;91.63
28027;BME280;15344;52.342;-1.290;2023-12-14T04:16:19;100419.32;;;5.70;93.25
28027;BME280;15344;52.342;-1.290;2023-12-14T04:18:43;100417.08;;;5.76;92.25
28027;BME280;15344;52.342;-1.290;2023-12-14T04:21:08;100418.24;;;6.16;92.05
28027;BME280;15344;52.342;-1.290;2023-12-14T04:23:34;100421.30;;;6.25;90.82
28027;BME280;15344;52.342;-1.290;2023-12-14T04:25:59;100425.20;;;6.29;92.10
28027;BME280;15344;52.342;-1.290;2023-12-14T04:28:24;100422.87;;;6.75;89.96
28027;BME280;15344;52.342;-1.290;2023-12-14T04:30:50;100423.57;;;6.35;88.93
28027;BME280;15344;52.342;-1.290;2023-12-14T04:33:16;100420.99;;;5.57;93.64
28027;BME280;15344;52.342;-1.290;2023-12-14T04:35:41;100421.81;;;6.04;93.71
28027;BME280;15344;52.342;-1.290;2023-12-14T04:38:06;100415.48;;;5.68;95.21
28027;BME280;15344;52.342;-1.290;2023-12-14T04:40:32;100414.06;;;6.71;89.76
28027;BME280;15344;52.342;-1.290;2023-12-14T04:42:57;100415.91;;;6.19;92.35
28027;BME280;15344;52.342;-1.290;2023-12-14T04:45:22;100416.92;;;6.46;90.67
28027;BME280;15344;52.342;-1.290;2023-12-14T04:47:48;100417.22;;;6.44;90.02
28027;BME280;15344;52.342;-1.290;2023-12-14T04:50:14;100411.72;;;6.40;90.23
28027;BME280;15344;52.342;-1.290;2023-12-14T04:52:41;100410.49;;;7.06;89.73
28027;BME280;15344;52.342;-1.290;2023-12-14T04:55:06;100409.89;;;7.04;87.64
28027;BME280;15344;52.342;-1.290;2023-12-14T04:57:31;100406.93;;;7.18;87.66
28027;BME280;15344;52.342;-1.290;2023-12-14T04:59:56;100419.66;;;6.61;88.03
28027;BME280;15344;52.342;-1.290;2023-12-14T05:02:22;100419.05;;;7.27;84.34
28027;BME280;15344;52.342;-1.290;2023-12-14T05:04:47;100422.36;;;6.97;87.33
28027;BME280;15344;52.342;-1.290;2023-12-14T05:07:13;100421.85;;;7.01;86.92
28027;BME280;15344;52.342;-1.290;2023-12-14T05:09:38;100425.39;;;7.09;85.84
28027;BME280;15344;52.342;-1.290;2023-12-14T05:12:04;100432.82;;;6.63;87.35
28027;BME280;15344;52.342;-1.290;2023-12-14T05:14:30;100429.16;;;6.93;88.79
28027;BME280;15344;52.342;-1.290;2023-12-14T05:16:54;100435.33;;;6.87;90.84
28027;BME280;15344;52.342;-1.290;2023-12-14T05:19:20;100434.09;;;5.68;95.33
28027;BME280;15344;52.342;-1.290;2023-12-14T05:21:46;100434.71;;;5.82;97.42
28027;BME280;15344;52.342;-1.290;2023-12-14T05:24:11;100434.67;;;6.38;93.24
28027;BME280;15344;52.342;-1.290;2023-12-14T05:26:37;100430.09;;;6.81;91.68
28027;BME280;15344;52.342;-1.290;2023-12-14T05:29:02;100433.54;;;6.88;90.51
28027;BME280;15344;52.342;-1.290;2023-12-14T05:31:28;100433.58;;;7.11;90.64
28027;BME280;15344;52.342;-1.290;2023-12-14T05:33:53;100431.57;;;7.39;89.40
28027;BME280;15344;52.342;-1.290;2023-12-14T05:36:19;100443.53;;;6.69;91.45
28027;BME280;15344;52.342;-1.290;2023-12-14T05:38:44;100443.69;;;6.36;94.70
28027;BME280;15344;52.342;-1.290;2023-12-14T05:41:09;100438.83;;;6.77;92.52
28027;BME280;15344;52.342;-1.290;2023-12-14T05:43:34;100441.84;;;6.77;94.85
28027;BME280;15344;52.342;-1.290;2023-12-14T05:46:00;100441.66;;;6.36;98.57
28027;BME280;15344;52.342;-1.290;2023-12-14T05:48:25;100442.74;;;6.72;96.17
28027;BME280;15344;52.342;-1.290;2023-12-14T05:50:52;100441.33;;;6.52;100.00
28027;BME280;15344;52.342;-1.290;2023-12-14T05:53:17;100437.25;;;6.00;100.00
28027;BME280;15344;52.342;-1.290;2023-12-14T05:55:42;100433.39;;;5.94;100.00
28027;BME280;15344;52.342;-1.290;2023-12-14T05:58:08;100431.90;;;5.86;100.00
28027;BME280;15344;52.342;-1.290;2023-12-14T06:00:34;100430.09;;;5.97;100.00
28027;BME280;15344;52.342;-1.290;2023-12-14T06:02:59;100426.38;;;6.02;100.00
28027;BME280;15344;52.342;-1.290;2023-12-14T06:05:24;100433.03;;;6.43;99.55
28027;BME280;15344;52.342;-1.290;2023-12-14T06:07:50;100432.64;;;6.67;98.85
28027;BME280;15344;52.342;-1.290;2023-12-14T06:10:15;100431.98;;;7.50;94.88
28027;BME280;15344;52.342;-1.290;2023-12-14T06:12:41;100434.83;;;7.27;93.91
28027;BME280;15344;52.342;-1.290;2023-12-14T06:15:07;100431.07;;;7.65;90.47
28027;BME280;15344;52.342;-1.290;2023-12-14T06:17:32;100427.59;;;7.81;90.81
28027;BME280;15344;52.342;-1.290;2023-12-14T06:19:58;100423.37;;;7.58;90.61
28027;BME280;15344;52.342;-1.290;2023-12-14T06:22:23;100416.61;;;8.30;87.31
28027;BME280;15344;52.342;-1.290;2023-12-14T06:24:49;100416.17;;;8.15;86.79
28027;BME280;15344;52.342;-1.290;2023-12-14T06:27:14;100421.87;;;8.04;86.65
28027;BME280;15344;52.342;-1.290;2023-12-14T06:29:39;100427.47;;;7.68;87.76
28027;BME280;15344;52.342;-1.290;2023-12-14T06:32:05;100425.73;;;7.16;90.08
28027;BME280;15344;52.342;-1.290;2023-12-14T06:34:30;100434.34;;;7.73;89.66
28027;BME280;15344;52.342;-1.290;2023-12-14T06:36:56;100433.00;;;7.10;92.00
28027;BME280;15344;52.342;-1.290;2023-12-14T06:39:21;100433.93;;;7.16;91.07
28027;BME280;15344;52.342;-1.290;2023-12-14T06:41:46;100441.11;;;6.67;94.48
28027;BME280;15344;52.342;-1.290;2023-12-14T06:44:12;100435.60;;;7.54;91.52
28027;BME280;15344;52.342;-1.290;2023-12-14T06:46:37;100439.03;;;7.59;92.39
28027;BME280;15344;52.342;-1.290;2023-12-14T06:49:03;100447.82;;;7.16;94.04
28027;BME280;15344;52.342;-1.290;2023-12-14T06:51:29;100451.80;;;6.81;95.30
28027;BME280;15344;52.342;-1.290;2023-12-14T06:53:54;100463.48;;;7.01;93.67
28027;BME280;15344;52.342;-1.290;2023-12-14T06:56:20;100473.39;;;7.23;95.05
28027;BME280;15344;52.342;-1.290;2023-12-14T06:58:46;100476.38;;;6.87;95.86
28027;BME280;15344;52.342;-1.290;2023-12-14T07:01:12;100479.81;;;6.78;94.64
28027;BME280;15344;52.342;-1.290;2023-12-14T07:03:37;100478.15;;;7.16;94.71
28027;BME280;15344;52.342;-1.290;2023-12-14T07:06:03;100472.00;;;7.02;94.38
28027;BME280;15344;52.342;-1.290;2023-12-14T07:08:28;100472.88;;;6.86;96.31
28027;BME280;15344;52.342;-1.290;2023-12-14T07:10:54;100474.94;;;7.14;94.96
28027;BME280;15344;52.342;-1.290;2023-12-14T07:13:20;100468.18;;;7.32;93.98
28027;BME280;15344;52.342;-1.290;2023-12-14T07:15:45;100473.97;;;7.37;93.36
28027;BME280;15344;52.342;-1.290;2023-12-14T07:18:10;100478.12;;;7.25;92.84
28027;BME280;15344;52.342;-1.290;2023-12-14T07:20:36;100475.66;;;7.27;94.22
28027;BME280;15344;52.342;-1.290;2023-12-14T07:23:01;100476.59;;;6.22;99.88
28027;BME280;15344;52.342;-1.290;2023-12-14T07:25:26;100480.21;;;7.09;95.27
28027;BME280;15344;52.342;-1.290;2023-12-14T07:27:52;100479.99;;;6.66;96.42
28027;BME280;15344;52.342;-1.290;2023-12-14T07:30:17;100480.79;;;6.99;95.41
28027;BME280;15344;52.342;-1.290;2023-12-14T07:32:43;100474.98;;;7.51;93.84
28027;BME280;15344;52.342;-1.290;2023-12-14T07:35:08;100470.67;;;7.49;94.13
28027;BME280;15344;52.342;-1.290;2023-12-14T07:37:34;100465.73;;;7.74;92.84
28027;BME280;15344;52.342;-1.290;2023-12-14T07:39:59;100464.92;;;7.61;94.19
28027;BME280;15344;52.342;-1.290;2023-12-14T07:42:25;100467.28;;;7.29;94.47
28027;BME280;15344;52.342;-1.290;2023-12-14T07:44:51;100471.76;;;7.43;95.31
28027;BME280;15344;52.342;-1.290;2023-12-14T07:47:16;100476.47;;;7.60;94.96
28027;BME280;15344;52.342;-1.290;2023-12-14T07:49:42;100480.33;;;7.28;95.91
28027;BME280;15344;52.342;-1.290;2023-12-14T07:52:07;100472.52;;;7.73;94.18
28027;BME280;15344;52.342;-1.290;2023-12-14T07:54:32;100475.12;;;8.01;92.63
28027;BME280;15344;52.342;-1.290;2023-12-14T07:56:58;100474.58;;;8.07;93.86
28027;BME280;15344;52.342;-1.290;2023-12-14T07:59:23;100477.70;;;7.96;93.68
28027;BME280;15344;52.342;-1.290;2023-12-14T08:01:49;100476.67;;;7.81;95.02
28027;BME280;15344;52.342;-1.290;2023-12-14T08:04:15;100476.65;;;8.16;93.44
28027;BME280;15344;52.342;-1.290;2023-12-14T08:06:40;100476.28;;;7.82;94.08
28027;BME280;15344;52.342;-1.290;2023-12-14T08:09:06;100476.81;;;8.43;92.80
28027;BME280;15344;52.342;-1.290;2023-12-14T08:11:31;100477.46;;;8.27;94.91
28027;BME280;15344;52.342;-1.290;2023-12-14T08:13:57;100479.61;;;7.99;96.47
28027;BME280;15344;52.342;-1.290;2023-12-14T08:16:22;100485.03;;;7.17;99.28
28027;BME280;15344;52.342;-1.290;2023-12-14T08:18:48;100481.24;;;7.70;97.19
28027;BME280;15344;52.342;-1.290;2023-12-14T08:21:13;100480.35;;;7.66;98.15
28027;BME280;15344;52.342;-1.290;2023-12-14T08:23:39;100482.23;;;8.02;97.81
28027;BME280;15344;52.342;-1.290;2023-12-14T08:26:05;100480.31;;;7.70;100.00
28027;BME280;15344;52.342;-1.290;2023-12-14T08:28:30;100482.48;;;7.57;100.00
28027;BME280;15344;52.342;-1.290;2023-12-14T08:30:55;100479.84;;;7.55;100.00
28027;BME280;15344;52.342;-1.290;2023-12-14T08:33:21;100485.87;;;8.10;99.49
28027;BME280;15344;52.342;-1.290;2023-12-14T08:35:47;100494.25;;;7.19;100.00
28027;BME280;15344;52.342;-1.290;2023-12-14T08:38:13;100494.67;;;7.08;100.00
28027;BME280;15344;52.342;-1.290;2023-12-14T08:40:38;100491.20;;;6.88;100.00
28027;BME280;15344;52.342;-1.290;2023-12-14T08:43:03;100489.42;;;6.86;100.00
28027;BME280;15344;52.342;-1.290;2023-12-14T08:45:29;100496.81;;;7.28;100.00
28027;BME280;15344;52.342;-1.290;2023-12-14T08:47:54;100490.21;;;7.42;100.00
28027;BME280;15344;52.342;-1.290;2023-12-14T08:50:20;100496.58;;;6.74;100.00
28027;BME280;15344;52.342;-1.290;2023-12-14T08:52:46;100499.47;;;6.21;100.00
28027;BME280;15344;52.342;-1.290;2023-12-14T08:55:11;100501.93;;;6.60;100.00
28027;BME280;15344;52.342;-1.290;2023-12-14T08:57:37;100505.05;;;7.01;100.00
28027;BME280;15344;52.342;-1.290;2023-12-14T09:00:03;100499.47;;;7.34;100.00
28027;BME280;15344;52.342;-1.290;2023-12-14T09:02:28;100502.70;;;7.28;100.00
28027;BME280;15344;52.342;-1.290;2023-12-14T09:04:53;100502.94;;;7.32;100.00
28027;BME280;15344;52.342;-1.290;2023-12-14T09:07:19;100510.14;;;6.89;100.00
28027;BME280;15344;52.342;-1.290;2023-12-14T09:09:44;100510.66;;;7.37;100.00
28027;BME280;15344;52.342;-1.290;2023-12-14T09:12:10;100514.00;;;7.21;100.00
28027;BME280;15344;52.342;-1.290;2023-12-14T09:14:35;100519.01;;;7.42;100.00
28027;BME280;15344;52.342;-1.290;2023-12-14T09:17:01;100518.62;;;7.52;100.00
28027;BME280;15344;52.342;-1.290;2023-12-14T09:19:26;100514.83;;;7.84;100.00
28027;BME280;15344;52.342;-1.290;2023-12-14T09:21:52;100516.75;;;8.11;100.00
28027;BME280;15344;52.342;-1.290;2023-12-14T09:24:17;100521.99;;;7.57;100.00
28027;BME280;15344;52.342;-1.290;2023-12-14T09:26:43;100521.17;;;7.29;100.00
28027;BME280;15344;52.342;-1.290;2023-12-14T09:29:08;100522.77;;;7.19;100.00
28027;BME280;15344;52.342;-1.290;2023-12-14T09:31:33;100526.33;;;6.33;100.00
28027;BME280;15344;52.342;-1.290;2023-12-14T09:33:59;100525.68;;;6.25;100.00
28027;BME280;15344;52.342;-1.290;2023-12-14T09:36:24;100527.23;;;7.00;100.00
28027;BME280;15344;52.342;-1.290;2023-12-14T09:38:50;100529.05;;;7.26;100.00
28027;BME280;15344;52.342;-1.290;2023-12-14T09:41:15;100527.68;;;7.63;100.00
28027;BME280;15344;52.342;-1.290;2023-12-14T09:43:41;100530.51;;;7.31;100.00
28027;BME280;15344;52.342;-1.290;2023-12-14T09:46:07;100525.88;;;6.15;100.00
28027;BME280;15344;52.342;-1.290;2023-12-14T09:48:32;100528.44;;;6.43;100.00
28027;BME280;15344;52.342;-1.290;2023-12-14T09:50:58;100528.22;;;6.92;100.00
28027;BME280;15344;52.342;-1.290;2023-12-14T09:53:23;100530.82;;;7.28;100.00
28027;BME280;15344;52.342;-1.290;2023-12-14T09:55:49;100529.99;;;6.45;100.00
28027;BME280;15344;52.342;-1.290;2023-12-14T09:58:14;100535.81;;;7.10;100.00
28027;BME280;15344;52.342;-1.290;2023-12-14T10:00:41;100542.63;;;7.47;100.00
28027;BME280;15344;52.342;-1.290;2023-12-14T10:05:31;100546.84;;;6.94;100.00
28027;BME280;15344;52.342;-1.290;2023-12-14T10:07:56;100550.37;;;6.77;100.00
28027;BME280;15344;52.342;-1.290;2023-12-14T10:10:22;100553.18;;;6.77;100.00
28027;BME280;15344;52.342;-1.290;2023-12-14T10:12:52;100557.46;;;6.17;100.00
28027;BME280;15344;52.342;-1.290;2023-12-14T10:15:13;100559.55;;;6.72;100.00
28027;BME280;15344;52.342;-1.290;2023-12-14T10:17:38;100565.39;;;7.45;100.00
28027;BME280;15344;52.342;-1.290;2023-12-14T10:20:04;100570.18;;;7.23;100.00
28027;BME280;15344;52.342;-1.290;2023-12-14T10:22:30;100575.03;;;7.65;100.00
28027;BME280;15344;52.342;-1.290;2023-12-14T10:24:56;100578.06;;;7.75;100.00
28027;BME280;15344;52.342;-1.290;2023-12-14T10:27:20;100571.94;;;8.18;100.00
28027;BME280;15344;52.342;-1.290;2023-12-14T10:29:46;100575.34;;;8.05;100.00
28027;BME280;15344;52.342;-1.290;2023-12-14T10:32:11;100581.58;;;8.21;100.00
28027;BME280;15344;52.342;-1.290;2023-12-14T10:34:37;100581.73;;;7.93;100.00
28027;BME280;15344;52.342;-1.290;2023-12-14T10:37:05;100588.99;;;7.76;100.00
28027;BME280;15344;52.342;-1.290;2023-12-14T10:39:29;100582.74;;;8.36;100.00
28027;BME280;15344;52.342;-1.290;2023-12-14T10:41:53;100584.99;;;8.45;100.00
28027;BME280;15344;52.342;-1.290;2023-12-14T10:44:19;100579.72;;;9.46;100.00
28027;BME280;15344;52.342;-1.290;2023-12-14T10:46:47;100583.70;;;9.22;100.00
28027;BME280;15344;52.342;-1.290;2023-12-14T10:49:10;100582.21;;;8.82;100.00
28027;BME280;15344;52.342;-1.290;2023-12-14T10:51:35;100583.18;;;9.62;100.00
28027;BME280;15344;52.342;-1.290;2023-12-14T10:54:00;100582.02;;;9.01;100.00
28027;BME280;15344;52.342;-1.290;2023-12-14T10:56:25;100582.07;;;8.84;100.00
28027;BME280;15344;52.342;-1.290;2023-12-14T10:58:52;100580.66;;;8.18;100.00
28027;BME280;15344;52.342;-1.290;2023-12-14T11:01:19;100583.61;;;8.83;100.00
28027;BME280;15344;52.342;-1.290;2023-12-14T11:03:42;100587.60;;;8.04;100.00
28027;BME280;15344;52.342;-1.290;2023-12-14T11:06:20;100591.03;;;8.39;100.00
28027;BME280;15344;52.342;-1.290;2023-12-14T11:08:35;100592.23;;;8.69;100.00
28027;BME280;15344;52.342;-1.290;2023-12-14T11:11:03;100595.36;;;9.14;100.00
28027;BME280;15344;52.342;-1.290;2023-12-14T11:13:24;100595.53;;;8.69;100.00
28027;BME280;15344;52.342;-1.290;2023-12-14T11:15:51;100599.28;;;8.49;100.00
28027;BME280;15344;52.342;-1.290;2023-12-14T11:18:21;100602.09;;;9.19;100.00
28027;BME280;15344;52.342;-1.290;2023-12-14T11:20:49;100606.99;;;8.66;100.00
28027;BME280;15344;52.342;-1.290;2023-12-14T11:23:07;100609.38;;;8.58;100.00
28027;BME280;15344;52.342;-1.290;2023-12-14T11:25:31;100608.00;;;8.79;100.00
28027;BME280;15344;52.342;-1.290;2023-12-14T11:28:03;100605.76;;;8.12;100.00
28027;BME280;15344;52.342;-1.290;2023-12-14T11:30:22;100601.88;;;8.93;100.00
28027;BME280;15344;52.342;-1.290;2023-12-14T11:32:47;100605.40;;;9.07;100.00
28027;BME280;15344;52.342;-1.290;2023-12-14T11:35:13;100614.08;;;9.81;100.00
28027;BME280;15344;52.342;-1.290;2023-12-14T11:37:38;100613.96;;;9.78;100.00
28027;BME280;15344;52.342;-1.290;2023-12-14T11:40:05;100611.60;;;10.06;100.00
28027;BME280;15344;52.342;-1.290;2023-12-14T11:42:29;100613.05;;;10.09;100.00
28027;BME280;15344;52.342;-1.290;2023-12-14T11:44:56;100616.48;;;9.70;100.00
28027;BME280;15344;52.342;-1.290;2023-12-14T11:47:20;100613.29;;;9.14;100.00
28027;BME280;15344;52.342;-1.290;2023-12-14T11:49:45;100612.73;;;9.21;100.00
28027;BME280;15344;52.342;-1.290;2023-12-14T11:52:11;100612.36;;;9.64;100.00
28027;BME280;15344;52.342;-1.290;2023-12-14T11:54:37;100608.48;;;10.14;100.00
28027;BME280;15344;52.342;-1.290;2023-12-14T11:57:02;100603.07;;;9.89;100.00
28027;BME280;15344;52.342;-1.290;2023-12-14T11:59:27;100601.25;;;9.90;100.00
28027;BME280;15344;52.342;-1.290;2023-12-14T12:01:55;100602.13;;;9.54;100.00
28027;BME280;15344;52.342;-1.290;2023-12-14T12:04:18;100599.81;;;10.20;100.00
28027;BME280;15344;52.342;-1.290;2023-12-14T12:06:43;100595.13;;;10.07;100.00
28027;BME280;15344;52.342;-1.290;2023-12-14T12:09:09;100598.24;;;9.85;100.00
28027;BME280;15344;52.342;-1.290;2023-12-14T12:11:36;100596.08;;;9.08;100.00
28027;BME280;15344;52.342;-1.290;2023-12-14T12:13:59;100595.32;;;9.92;100.00
28027;BME280;15344;52.342;-1.290;2023-12-14T12:16:25;100596.06;;;9.51;100.00
28027;BME280;15344;52.342;-1.290;2023-12-14T12:18:51;100593.41;;;10.17;100.00
28027;BME280;15344;52.342;-1.290;2023-12-14T12:21:16;100592.29;;;10.17;100.00
28027;BME280;15344;52.342;-1.290;2023-12-14T12:23:41;100588.35;;;10.08;100.00
28027;BME280;15344;52.342;-1.290;2023-12-14T12:26:06;100594.63;;;10.14;100.00
28027;BME280;15344;52.342;-1.290;2023-12-14T12:28:32;100596.39;;;10.22;100.00
28027;BME280;15344;52.342;-1.290;2023-12-14T12:30:57;100595.89;;;10.42;100.00
28027;BME280;15344;52.342;-1.290;2023-12-14T12:33:23;100594.99;;;10.16;100.00
28027;BME280;15344;52.342;-1.290;2023-12-14T12:35:48;100587.44;;;9.95;100.00
28027;BME280;15344;52.342;-1.290;2023-12-14T12:38:13;100584.87;;;10.10;100.00